Messwerte Addis Abeba

Temperatur

Temperatur
°C
1618891200 7.00 7.00
1618894800 8.00 8.00 17
1618898400 9.00 9.00 20
1618902000 10.00 10.00
1618905600 11.00 11.00 24
1618909200 12.00 12.00
1618912800 13.00 13.00
1618916400 14.00 14.00
1618920000 15.00 15.00 26
1618923600 16.00 16.00
1618927200 17.00 17.00
1618930800 18.00 18.00 23
1618934400 19.00 19.00
1618938000 20.00 20.00
1618941600 21.00 21.00 19
1618945200 22.00 22.00 18
1618948800 23.00 23.00 18
1618952400 0.00 0.00
1618956000 1.00 1.00 14
1618959600 2.00 2.00 14
1618963200 3.00 3.00 14
1618966800 4.00 4.00
1618970400 5.00 5.00
1618974000 6.00 6.00 13

Aktuellste Messwerte

Wettercharakter
Wetter: meist klar
Temperatur
13 °C
Feuchtigkeit
60 %
Wind
10 km/hWindrichtung: Nordost
Luftdruck
1025 hPa
Messzeit: 21. April 2021, 6.00Datenquelle: METAR

Wind

Windrichtung Böen Mittelwind
° km/h km/h
1618891200 7.00 6.00 - 7.00
1618894800 8.00 7.00 - 8.00 150° 5
1618898400 9.00 8.00 - 9.00 120° 25
1618902000 10.00 9.00 - 10.00
1618905600 11.00 10.00 - 11.00 120° 45
1618909200 12.00 11.00 - 12.00
1618912800 13.00 12.00 - 13.00
1618916400 14.00 13.00 - 14.00
1618920000 15.00 14.00 - 15.00 100° 50
1618923600 16.00 15.00 - 16.00
1618927200 17.00 16.00 - 17.00
1618930800 18.00 17.00 - 18.00 110° 30
1618934400 19.00 18.00 - 19.00
1618938000 20.00 19.00 - 20.00
1618941600 21.00 20.00 - 21.00 70° 20
1618945200 22.00 21.00 - 22.00 40° 10
1618948800 23.00 22.00 - 23.00 40° 15
1618952400 0.00 23.00 - 0.00
1618956000 1.00 0.00 - 1.00 160° 5
1618959600 2.00 1.00 - 2.00 330° 5
1618963200 3.00 2.00 - 3.00 300° 5
1618966800 4.00 3.00 - 4.00
1618970400 5.00 4.00 - 5.00
1618974000 6.00 5.00 - 6.00 30° 10

Ihre Wetterstation

Fehlt Ihre Wetterstation auf unserem Portal?

Schreiben Sie an network@meteonews.ch